sensor_id;sensor_type;location;lat;lon;timestamp;P1;durP1;ratioP1;P2;durP2;ratioP2
55300;SDS011;58302;51.446;-2.000;2023-04-21T00:01:02;16.15;;;8.98;;
55300;SDS011;58302;51.446;-2.000;2023-04-21T00:03:33;13.85;;;7.97;;
55300;SDS011;58302;51.446;-2.000;2023-04-21T00:06:03;14.60;;;8.88;;
55300;SDS011;58302;51.446;-2.000;2023-04-21T00:08:31;14.13;;;9.00;;
55300;SDS011;58302;51.446;-2.000;2023-04-21T00:10:57;13.63;;;8.43;;
55300;SDS011;58302;51.446;-2.000;2023-04-21T00:13:26;16.05;;;9.07;;
55300;SDS011;58302;51.446;-2.000;2023-04-21T00:15:52;13.93;;;8.57;;
55300;SDS011;58302;51.446;-2.000;2023-04-21T00:18:17;15.25;;;9.30;;
55300;SDS011;58302;51.446;-2.000;2023-04-21T00:20:43;11.73;;;7.97;;
55300;SDS011;58302;51.446;-2.000;2023-04-21T00:23:09;14.32;;;9.43;;
55300;SDS011;58302;51.446;-2.000;2023-04-21T00:25:35;12.00;;;8.05;;
55300;SDS011;58302;51.446;-2.000;2023-04-21T00:28:01;16.08;;;8.63;;
55300;SDS011;58302;51.446;-2.000;2023-04-21T00:30:28;12.90;;;8.07;;
55300;SDS011;58302;51.446;-2.000;2023-04-21T00:32:54;12.90;;;7.88;;
55300;SDS011;58302;51.446;-2.000;2023-04-21T00:35:20;15.35;;;8.60;;
55300;SDS011;58302;51.446;-2.000;2023-04-21T00:37:46;18.38;;;9.13;;
55300;SDS011;58302;51.446;-2.000;2023-04-21T00:40:14;15.45;;;8.32;;
55300;SDS011;58302;51.446;-2.000;2023-04-21T00:42:40;17.13;;;9.38;;
55300;SDS011;58302;51.446;-2.000;2023-04-21T00:45:06;15.55;;;10.15;;
55300;SDS011;58302;51.446;-2.000;2023-04-21T00:47:32;14.55;;;9.60;;
55300;SDS011;58302;51.446;-2.000;2023-04-21T00:49:58;15.43;;;9.10;;
55300;SDS011;58302;51.446;-2.000;2023-04-21T00:52:25;21.40;;;10.18;;
55300;SDS011;58302;51.446;-2.000;2023-04-21T00:54:52;19.25;;;9.25;;
55300;SDS011;58302;51.446;-2.000;2023-04-21T00:57:19;22.75;;;12.07;;
55300;SDS011;58302;51.446;-2.000;2023-04-21T00:59:45;12.13;;;8.45;;
55300;SDS011;58302;51.446;-2.000;2023-04-21T01:02:17;19.80;;;11.18;;
55300;SDS011;58302;51.446;-2.000;2023-04-21T01:04:43;18.90;;;9.73;;
55300;SDS011;58302;51.446;-2.000;2023-04-21T01:07:10;16.10;;;9.38;;
55300;SDS011;58302;51.446;-2.000;2023-04-21T01:09:36;15.93;;;9.38;;
55300;SDS011;58302;51.446;-2.000;2023-04-21T01:12:02;11.68;;;7.53;;
55300;SDS011;58302;51.446;-2.000;2023-04-21T01:14:29;20.58;;;9.82;;
55300;SDS011;58302;51.446;-2.000;2023-04-21T01:16:55;17.52;;;7.80;;
55300;SDS011;58302;51.446;-2.000;2023-04-21T01:19:22;16.73;;;8.70;;
55300;SDS011;58302;51.446;-2.000;2023-04-21T01:21:52;17.65;;;9.50;;
55300;SDS011;58302;51.446;-2.000;2023-04-21T01:24:35;15.63;;;8.52;;
55300;SDS011;58302;51.446;-2.000;2023-04-21T01:27:10;13.35;;;8.13;;
55300;SDS011;58302;51.446;-2.000;2023-04-21T01:29:37;15.85;;;8.75;;
55300;SDS011;58302;51.446;-2.000;2023-04-21T01:32:06;12.73;;;7.53;;
55300;SDS011;58302;51.446;-2.000;2023-04-21T01:34:33;17.85;;;9.27;;
55300;SDS011;58302;51.446;-2.000;2023-04-21T01:36:59;12.93;;;8.13;;
55300;SDS011;58302;51.446;-2.000;2023-04-21T01:39:25;24.73;;;8.63;;
55300;SDS011;58302;51.446;-2.000;2023-04-21T01:41:51;15.25;;;9.57;;
55300;SDS011;58302;51.446;-2.000;2023-04-21T01:44:20;13.05;;;9.20;;
55300;SDS011;58302;51.446;-2.000;2023-04-21T01:46:46;11.00;;;7.38;;
55300;SDS011;58302;51.446;-2.000;2023-04-21T01:49:11;15.75;;;8.43;;
55300;SDS011;58302;51.446;-2.000;2023-04-21T01:51:37;13.00;;;8.82;;
55300;SDS011;58302;51.446;-2.000;2023-04-21T01:54:03;16.83;;;8.63;;
55300;SDS011;58302;51.446;-2.000;2023-04-21T01:56:30;15.50;;;9.52;;
55300;SDS011;58302;51.446;-2.000;2023-04-21T01:58:56;18.35;;;9.18;;
55300;SDS011;58302;51.446;-2.000;2023-04-21T02:01:21;16.83;;;9.85;;
55300;SDS011;58302;51.446;-2.000;2023-04-21T02:03:47;18.25;;;8.63;;
55300;SDS011;58302;51.446;-2.000;2023-04-21T02:06:13;15.93;;;9.75;;
55300;SDS011;58302;51.446;-2.000;2023-04-21T02:08:39;19.40;;;10.05;;
55300;SDS011;58302;51.446;-2.000;2023-04-21T02:11:05;17.92;;;9.35;;
55300;SDS011;58302;51.446;-2.000;2023-04-21T02:13:31;17.55;;;10.05;;
55300;SDS011;58302;51.446;-2.000;2023-04-21T02:15:57;16.85;;;9.15;;
55300;SDS011;58302;51.446;-2.000;2023-04-21T02:18:23;17.98;;;8.98;;
55300;SDS011;58302;51.446;-2.000;2023-04-21T02:20:50;13.38;;;8.95;;
55300;SDS011;58302;51.446;-2.000;2023-04-21T02:23:16;15.43;;;8.80;;
55300;SDS011;58302;51.446;-2.000;2023-04-21T02:25:42;15.13;;;10.02;;
55300;SDS011;58302;51.446;-2.000;2023-04-21T02:28:08;18.20;;;10.18;;
55300;SDS011;58302;51.446;-2.000;2023-04-21T02:30:34;18.38;;;10.63;;
55300;SDS011;58302;51.446;-2.000;2023-04-21T02:33:00;14.00;;;8.93;;
55300;SDS011;58302;51.446;-2.000;2023-04-21T02:35:26;17.30;;;9.82;;
55300;SDS011;58302;51.446;-2.000;2023-04-21T02:37:52;16.00;;;8.95;;
55300;SDS011;58302;51.446;-2.000;2023-04-21T02:40:18;21.02;;;9.75;;
55300;SDS011;58302;51.446;-2.000;2023-04-21T02:42:44;20.63;;;9.48;;
55300;SDS011;58302;51.446;-2.000;2023-04-21T02:45:10;15.68;;;8.93;;
55300;SDS011;58302;51.446;-2.000;2023-04-21T02:47:36;15.18;;;10.10;;
55300;SDS011;58302;51.446;-2.000;2023-04-21T02:50:02;19.17;;;9.90;;
55300;SDS011;58302;51.446;-2.000;2023-04-21T02:52:28;15.48;;;8.73;;
55300;SDS011;58302;51.446;-2.000;2023-04-21T02:54:54;16.73;;;9.88;;
55300;SDS011;58302;51.446;-2.000;2023-04-21T02:57:20;19.15;;;10.52;;
55300;SDS011;58302;51.446;-2.000;2023-04-21T02:59:46;16.60;;;9.48;;
55300;SDS011;58302;51.446;-2.000;2023-04-21T03:02:12;15.73;;;9.43;;
55300;SDS011;58302;51.446;-2.000;2023-04-21T03:04:38;18.85;;;10.07;;
55300;SDS011;58302;51.446;-2.000;2023-04-21T03:07:04;16.33;;;10.40;;
55300;SDS011;58302;51.446;-2.000;2023-04-21T03:09:30;19.13;;;9.50;;
55300;SDS011;58302;51.446;-2.000;2023-04-21T03:11:56;15.63;;;9.57;;
55300;SDS011;58302;51.446;-2.000;2023-04-21T03:14:22;15.38;;;10.00;;
55300;SDS011;58302;51.446;-2.000;2023-04-21T03:16:48;18.42;;;9.52;;
55300;SDS011;58302;51.446;-2.000;2023-04-21T03:19:13;17.42;;;10.80;;
55300;SDS011;58302;51.446;-2.000;2023-04-21T03:21:40;18.15;;;10.30;;
55300;SDS011;58302;51.446;-2.000;2023-04-21T03:24:06;21.65;;;10.75;;
55300;SDS011;58302;51.446;-2.000;2023-04-21T03:26:32;17.75;;;10.45;;
55300;SDS011;58302;51.446;-2.000;2023-04-21T03:28:58;18.02;;;11.27;;
55300;SDS011;58302;51.446;-2.000;2023-04-21T03:31:24;18.30;;;9.70;;
55300;SDS011;58302;51.446;-2.000;2023-04-21T03:33:50;16.00;;;9.80;;
55300;SDS011;58302;51.446;-2.000;2023-04-21T03:36:16;20.48;;;9.95;;
55300;SDS011;58302;51.446;-2.000;2023-04-21T03:38:42;18.17;;;9.27;;
55300;SDS011;58302;51.446;-2.000;2023-04-21T03:41:07;18.95;;;11.55;;
55300;SDS011;58302;51.446;-2.000;2023-04-21T03:43:33;21.48;;;11.40;;
55300;SDS011;58302;51.446;-2.000;2023-04-21T03:46:00;17.90;;;10.05;;
55300;SDS011;58302;51.446;-2.000;2023-04-21T03:48:26;22.13;;;11.20;;
55300;SDS011;58302;51.446;-2.000;2023-04-21T03:50:53;15.52;;;10.48;;
55300;SDS011;58302;51.446;-2.000;2023-04-21T03:53:19;17.20;;;10.45;;
55300;SDS011;58302;51.446;-2.000;2023-04-21T03:55:45;18.15;;;10.45;;
55300;SDS011;58302;51.446;-2.000;2023-04-21T03:58:16;20.67;;;11.15;;
55300;SDS011;58302;51.446;-2.000;2023-04-21T04:00:42;18.50;;;11.07;;
55300;SDS011;58302;51.446;-2.000;2023-04-21T04:03:08;27.30;;;13.15;;
55300;SDS011;58302;51.446;-2.000;2023-04-21T04:05:34;16.55;;;11.23;;
55300;SDS011;58302;51.446;-2.000;2023-04-21T04:08:01;24.17;;;12.02;;
55300;SDS011;58302;51.446;-2.000;2023-04-21T04:10:27;20.33;;;11.25;;
55300;SDS011;58302;51.446;-2.000;2023-04-21T04:12:53;17.63;;;11.68;;
55300;SDS011;58302;51.446;-2.000;2023-04-21T04:15:19;19.42;;;10.63;;
55300;SDS011;58302;51.446;-2.000;2023-04-21T04:17:45;19.45;;;10.70;;
55300;SDS011;58302;51.446;-2.000;2023-04-21T04:20:11;19.05;;;10.55;;
55300;SDS011;58302;51.446;-2.000;2023-04-21T04:22:38;22.35;;;11.38;;
55300;SDS011;58302;51.446;-2.000;2023-04-21T04:25:04;18.80;;;10.60;;
55300;SDS011;58302;51.446;-2.000;2023-04-21T04:27:30;17.30;;;12.48;;
55300;SDS011;58302;51.446;-2.000;2023-04-21T04:29:56;19.08;;;10.68;;
55300;SDS011;58302;51.446;-2.000;2023-04-21T04:32:22;18.17;;;11.85;;
55300;SDS011;58302;51.446;-2.000;2023-04-21T04:34:53;22.75;;;11.30;;
55300;SDS011;58302;51.446;-2.000;2023-04-21T04:37:20;20.83;;;12.48;;
55300;SDS011;58302;51.446;-2.000;2023-04-21T04:39:46;23.00;;;11.77;;
55300;SDS011;58302;51.446;-2.000;2023-04-21T04:42:12;20.98;;;11.80;;
55300;SDS011;58302;51.446;-2.000;2023-04-21T04:44:39;19.13;;;11.32;;
55300;SDS011;58302;51.446;-2.000;2023-04-21T04:47:06;17.45;;;10.88;;
55300;SDS011;58302;51.446;-2.000;2023-04-21T04:49:31;18.60;;;10.93;;
55300;SDS011;58302;51.446;-2.000;2023-04-21T04:51:57;18.88;;;11.77;;
55300;SDS011;58302;51.446;-2.000;2023-04-21T04:54:24;23.55;;;11.85;;
55300;SDS011;58302;51.446;-2.000;2023-04-21T04:56:50;18.10;;;10.43;;
55300;SDS011;58302;51.446;-2.000;2023-04-21T04:59:16;25.65;;;11.65;;
55300;SDS011;58302;51.446;-2.000;2023-04-21T05:01:42;21.52;;;11.82;;
55300;SDS011;58302;51.446;-2.000;2023-04-21T05:04:08;17.88;;;10.52;;
55300;SDS011;58302;51.446;-2.000;2023-04-21T05:06:34;15.68;;;10.25;;
55300;SDS011;58302;51.446;-2.000;2023-04-21T05:09:00;16.95;;;11.10;;
55300;SDS011;58302;51.446;-2.000;2023-04-21T05:11:26;16.92;;;10.13;;
55300;SDS011;58302;51.446;-2.000;2023-04-21T05:13:52;20.38;;;10.98;;
55300;SDS011;58302;51.446;-2.000;2023-04-21T05:16:18;19.77;;;11.38;;
55300;SDS011;58302;51.446;-2.000;2023-04-21T05:18:44;22.20;;;10.88;;
55300;SDS011;58302;51.446;-2.000;2023-04-21T05:21:10;21.40;;;11.55;;
55300;SDS011;58302;51.446;-2.000;2023-04-21T05:23:36;21.80;;;11.10;;
55300;SDS011;58302;51.446;-2.000;2023-04-21T05:26:02;19.15;;;11.82;;
55300;SDS011;58302;51.446;-2.000;2023-04-21T05:28:28;21.60;;;9.80;;
55300;SDS011;58302;51.446;-2.000;2023-04-21T05:30:55;17.85;;;10.95;;
55300;SDS011;58302;51.446;-2.000;2023-04-21T05:33:21;20.55;;;11.35;;
55300;SDS011;58302;51.446;-2.000;2023-04-21T05:35:47;19.38;;;12.20;;
55300;SDS011;58302;51.446;-2.000;2023-04-21T05:38:13;18.05;;;10.50;;
55300;SDS011;58302;51.446;-2.000;2023-04-21T05:40:39;21.30;;;12.07;;
55300;SDS011;58302;51.446;-2.000;2023-04-21T05:43:05;17.42;;;11.13;;
55300;SDS011;58302;51.446;-2.000;2023-04-21T05:45:31;16.30;;;10.43;;
55300;SDS011;58302;51.446;-2.000;2023-04-21T05:47:57;19.48;;;10.52;;
55300;SDS011;58302;51.446;-2.000;2023-04-21T05:50:22;17.52;;;10.52;;
55300;SDS011;58302;51.446;-2.000;2023-04-21T05:52:50;18.77;;;10.38;;
55300;SDS011;58302;51.446;-2.000;2023-04-21T05:55:16;18.65;;;10.68;;
55300;SDS011;58302;51.446;-2.000;2023-04-21T05:57:42;25.38;;;11.70;;
55300;SDS011;58302;51.446;-2.000;2023-04-21T06:00:08;23.45;;;11.77;;
55300;SDS011;58302;51.446;-2.000;2023-04-21T06:02:35;18.35;;;10.32;;
55300;SDS011;58302;51.446;-2.000;2023-04-21T06:05:01;16.38;;;10.27;;
55300;SDS011;58302;51.446;-2.000;2023-04-21T06:07:26;19.48;;;11.07;;
55300;SDS011;58302;51.446;-2.000;2023-04-21T06:09:52;27.15;;;11.43;;
55300;SDS011;58302;51.446;-2.000;2023-04-21T06:12:18;19.15;;;10.00;;
55300;SDS011;58302;51.446;-2.000;2023-04-21T06:14:44;17.90;;;10.93;;
55300;SDS011;58302;51.446;-2.000;2023-04-21T06:17:10;21.58;;;11.25;;
55300;SDS011;58302;51.446;-2.000;2023-04-21T06:19:41;22.50;;;14.00;;
55300;SDS011;58302;51.446;-2.000;2023-04-21T06:22:06;22.65;;;12.15;;
55300;SDS011;58302;51.446;-2.000;2023-04-21T06:24:32;24.25;;;11.75;;
55300;SDS011;58302;51.446;-2.000;2023-04-21T06:26:58;21.65;;;13.77;;
55300;SDS011;58302;51.446;-2.000;2023-04-21T06:29:24;24.20;;;11.50;;
55300;SDS011;58302;51.446;-2.000;2023-04-21T06:31:50;27.52;;;12.63;;
55300;SDS011;58302;51.446;-2.000;2023-04-21T06:34:16;24.52;;;12.40;;
55300;SDS011;58302;51.446;-2.000;2023-04-21T06:36:42;26.75;;;11.55;;
55300;SDS011;58302;51.446;-2.000;2023-04-21T06:39:08;25.58;;;12.50;;
55300;SDS011;58302;51.446;-2.000;2023-04-21T06:41:34;23.27;;;12.35;;
55300;SDS011;58302;51.446;-2.000;2023-04-21T06:44:00;22.65;;;12.88;;
55300;SDS011;58302;51.446;-2.000;2023-04-21T06:46:26;20.30;;;13.15;;
55300;SDS011;58302;51.446;-2.000;2023-04-21T06:48:52;24.48;;;12.57;;
55300;SDS011;58302;51.446;-2.000;2023-04-21T06:51:18;25.15;;;12.48;;
55300;SDS011;58302;51.446;-2.000;2023-04-21T06:53:44;32.20;;;13.88;;
55300;SDS011;58302;51.446;-2.000;2023-04-21T06:56:10;25.88;;;14.75;;
55300;SDS011;58302;51.446;-2.000;2023-04-21T06:58:36;24.60;;;13.27;;
55300;SDS011;58302;51.446;-2.000;2023-04-21T07:01:02;21.15;;;13.80;;
55300;SDS011;58302;51.446;-2.000;2023-04-21T07:03:28;24.02;;;14.38;;
55300;SDS011;58302;51.446;-2.000;2023-04-21T07:05:54;27.10;;;15.05;;
55300;SDS011;58302;51.446;-2.000;2023-04-21T07:08:20;26.67;;;14.02;;
55300;SDS011;58302;51.446;-2.000;2023-04-21T07:10:45;25.25;;;12.70;;
55300;SDS011;58302;51.446;-2.000;2023-04-21T07:13:11;22.27;;;12.98;;
55300;SDS011;58302;51.446;-2.000;2023-04-21T07:15:42;24.80;;;12.90;;
55300;SDS011;58302;51.446;-2.000;2023-04-21T07:18:08;23.35;;;14.10;;
55300;SDS011;58302;51.446;-2.000;2023-04-21T07:20:34;17.85;;;11.90;;
55300;SDS011;58302;51.446;-2.000;2023-04-21T07:23:00;22.50;;;13.02;;
55300;SDS011;58302;51.446;-2.000;2023-04-21T07:25:26;21.10;;;12.07;;
55300;SDS011;58302;51.446;-2.000;2023-04-21T07:27:51;24.63;;;13.88;;
55300;SDS011;58302;51.446;-2.000;2023-04-21T07:30:17;20.45;;;11.88;;
55300;SDS011;58302;51.446;-2.000;2023-04-21T07:32:44;19.50;;;12.70;;
55300;SDS011;58302;51.446;-2.000;2023-04-21T07:35:11;26.40;;;14.13;;
55300;SDS011;58302;51.446;-2.000;2023-04-21T07:37:37;23.35;;;11.63;;
55300;SDS011;58302;51.446;-2.000;2023-04-21T07:40:05;21.20;;;13.00;;
55300;SDS011;58302;51.446;-2.000;2023-04-21T07:42:34;19.55;;;12.20;;
55300;SDS011;58302;51.446;-2.000;2023-04-21T07:45:00;21.40;;;11.95;;
55300;SDS011;58302;51.446;-2.000;2023-04-21T07:47:27;23.33;;;12.35;;
55300;SDS011;58302;51.446;-2.000;2023-04-21T07:49:53;20.77;;;11.10;;
55300;SDS011;58302;51.446;-2.000;2023-04-21T07:52:19;20.95;;;11.80;;
55300;SDS011;58302;51.446;-2.000;2023-04-21T07:54:45;19.02;;;11.45;;
55300;SDS011;58302;51.446;-2.000;2023-04-21T07:57:11;21.65;;;12.32;;
55300;SDS011;58302;51.446;-2.000;2023-04-21T07:59:37;15.50;;;11.20;;
55300;SDS011;58302;51.446;-2.000;2023-04-21T08:02:03;27.02;;;12.38;;
55300;SDS011;58302;51.446;-2.000;2023-04-21T08:04:30;17.02;;;10.38;;
55300;SDS011;58302;51.446;-2.000;2023-04-21T08:06:56;17.77;;;9.55;;
55300;SDS011;58302;51.446;-2.000;2023-04-21T08:09:22;16.88;;;9.43;;
55300;SDS011;58302;51.446;-2.000;2023-04-21T08:11:48;22.23;;;11.32;;
55300;SDS011;58302;51.446;-2.000;2023-04-21T08:14:15;19.67;;;10.68;;
55300;SDS011;58302;51.446;-2.000;2023-04-21T08:16:41;16.42;;;9.88;;
55300;SDS011;58302;51.446;-2.000;2023-04-21T08:19:07;15.80;;;10.20;;
55300;SDS011;58302;51.446;-2.000;2023-04-21T08:21:35;17.98;;;8.93;;
55300;SDS011;58302;51.446;-2.000;2023-04-21T08:24:01;15.55;;;10.55;;
55300;SDS011;58302;51.446;-2.000;2023-04-21T08:26:27;15.13;;;9.07;;
55300;SDS011;58302;51.446;-2.000;2023-04-21T08:28:55;13.77;;;9.02;;
55300;SDS011;58302;51.446;-2.000;2023-04-21T08:31:21;14.05;;;8.75;;
55300;SDS011;58302;51.446;-2.000;2023-04-21T08:33:47;13.30;;;8.40;;
55300;SDS011;58302;51.446;-2.000;2023-04-21T08:36:13;18.33;;;8.60;;
55300;SDS011;58302;51.446;-2.000;2023-04-21T08:38:41;14.85;;;8.48;;
55300;SDS011;58302;51.446;-2.000;2023-04-21T08:41:08;16.55;;;10.05;;
55300;SDS011;58302;51.446;-2.000;2023-04-21T08:43:40;12.18;;;8.05;;
55300;SDS011;58302;51.446;-2.000;2023-04-21T08:46:06;10.02;;;6.40;;
55300;SDS011;58302;51.446;-2.000;2023-04-21T08:48:34;13.57;;;8.75;;
55300;SDS011;58302;51.446;-2.000;2023-04-21T08:51:02;15.98;;;7.50;;
55300;SDS011;58302;51.446;-2.000;2023-04-21T08:53:28;10.98;;;7.95;;
55300;SDS011;58302;51.446;-2.000;2023-04-21T08:55:57;13.25;;;7.45;;
55300;SDS011;58302;51.446;-2.000;2023-04-21T08:58:23;14.15;;;9.00;;
55300;SDS011;58302;51.446;-2.000;2023-04-21T09:00:49;12.10;;;7.25;;
55300;SDS011;58302;51.446;-2.000;2023-04-21T09:03:21;12.55;;;7.70;;
55300;SDS011;58302;51.446;-2.000;2023-04-21T09:05:58;10.57;;;8.00;;
55300;SDS011;58302;51.446;-2.000;2023-04-21T09:08:26;13.20;;;8.32;;
55300;SDS011;58302;51.446;-2.000;2023-04-21T09:10:54;13.05;;;7.93;;
55300;SDS011;58302;51.446;-2.000;2023-04-21T09:13:28;16.98;;;8.45;;
55300;SDS011;58302;51.446;-2.000;2023-04-21T09:15:56;13.88;;;8.50;;
55300;SDS011;58302;51.446;-2.000;2023-04-21T09:18:23;14.77;;;8.52;;
55300;SDS011;58302;51.446;-2.000;2023-04-21T09:20:51;10.63;;;8.40;;
55300;SDS011;58302;51.446;-2.000;2023-04-21T09:23:29;16.38;;;8.82;;
55300;SDS011;58302;51.446;-2.000;2023-04-21T09:25:55;11.27;;;7.88;;
55300;SDS011;58302;51.446;-2.000;2023-04-21T09:28:21;15.68;;;9.23;;
55300;SDS011;58302;51.446;-2.000;2023-04-21T09:30:47;13.18;;;8.85;;
55300;SDS011;58302;51.446;-2.000;2023-04-21T09:33:19;13.55;;;8.70;;
55300;SDS011;58302;51.446;-2.000;2023-04-21T09:35:45;15.98;;;9.77;;
55300;SDS011;58302;51.446;-2.000;2023-04-21T09:38:12;13.25;;;8.98;;
55300;SDS011;58302;51.446;-2.000;2023-04-21T09:40:38;10.65;;;8.02;;
55300;SDS011;58302;51.446;-2.000;2023-04-21T09:43:06;14.13;;;8.52;;
55300;SDS011;58302;51.446;-2.000;2023-04-21T09:45:32;14.52;;;9.13;;
55300;SDS011;58302;51.446;-2.000;2023-04-21T09:48:00;11.52;;;7.50;;
55300;SDS011;58302;51.446;-2.000;2023-04-21T09:50:28;15.40;;;8.90;;
55300;SDS011;58302;51.446;-2.000;2023-04-21T09:52:54;16.75;;;9.55;;
55300;SDS011;58302;51.446;-2.000;2023-04-21T09:55:27;13.75;;;9.13;;
55300;SDS011;58302;51.446;-2.000;2023-04-21T09:57:58;12.13;;;8.02;;
55300;SDS011;58302;51.446;-2.000;2023-04-21T10:00:26;15.32;;;9.93;;
55300;SDS011;58302;51.446;-2.000;2023-04-21T10:02:56;12.52;;;7.82;;
55300;SDS011;58302;51.446;-2.000;2023-04-21T10:05:25;11.18;;;7.32;;
55300;SDS011;58302;51.446;-2.000;2023-04-21T10:07:51;16.48;;;8.30;;
55300;SDS011;58302;51.446;-2.000;2023-04-21T10:12:53;10.48;;;7.30;;
55300;SDS011;58302;51.446;-2.000;2023-04-21T10:21:03;10.38;;;8.40;;
55300;SDS011;58302;51.446;-2.000;2023-04-21T10:23:46;11.00;;;7.32;;
55300;SDS011;58302;51.446;-2.000;2023-04-21T10:26:33;9.63;;;5.90;;
55300;SDS011;58302;51.446;-2.000;2023-04-21T10:29:00;14.07;;;7.22;;
55300;SDS011;58302;51.446;-2.000;2023-04-21T10:39:11;13.75;;;8.77;;
55300;SDS011;58302;51.446;-2.000;2023-04-21T10:41:51;12.77;;;8.40;;
55300;SDS011;58302;51.446;-2.000;2023-04-21T10:44:20;8.73;;;6.90;;
55300;SDS011;58302;51.446;-2.000;2023-04-21T10:46:47;10.18;;;7.50;;
55300;SDS011;58302;51.446;-2.000;2023-04-21T10:49:28;11.27;;;7.70;;
55300;SDS011;58302;51.446;-2.000;2023-04-21T10:54:24;14.48;;;9.38;;
55300;SDS011;58302;51.446;-2.000;2023-04-21T10:56:54;9.30;;;7.25;;
55300;SDS011;58302;51.446;-2.000;2023-04-21T10:59:25;10.43;;;7.68;;
55300;SDS011;58302;51.446;-2.000;2023-04-21T11:01:51;9.43;;;6.25;;
55300;SDS011;58302;51.446;-2.000;2023-04-21T11:04:18;8.88;;;5.82;;
55300;SDS011;58302;51.446;-2.000;2023-04-21T11:07:03;8.35;;;6.25;;
55300;SDS011;58302;51.446;-2.000;2023-04-21T11:09:36;9.70;;;5.20;;
55300;SDS011;58302;51.446;-2.000;2023-04-21T11:12:06;7.72;;;5.28;;
55300;SDS011;58302;51.446;-2.000;2023-04-21T11:14:37;7.78;;;5.38;;
55300;SDS011;58302;51.446;-2.000;2023-04-21T11:17:09;7.68;;;5.18;;
55300;SDS011;58302;51.446;-2.000;2023-04-21T11:19:37;8.57;;;5.20;;
55300;SDS011;58302;51.446;-2.000;2023-04-21T11:22:04;9.18;;;5.35;;
55300;SDS011;58302;51.446;-2.000;2023-04-21T11:24:32;6.28;;;5.28;;
55300;SDS011;58302;51.446;-2.000;2023-04-21T11:26:58;7.32;;;5.20;;
55300;SDS011;58302;51.446;-2.000;2023-04-21T11:29:27;6.13;;;4.93;;
55300;SDS011;58302;51.446;-2.000;2023-04-21T11:31:54;7.22;;;4.65;;
55300;SDS011;58302;51.446;-2.000;2023-04-21T11:34:20;6.22;;;4.20;;
55300;SDS011;58302;51.446;-2.000;2023-04-21T11:36:47;5.03;;;4.30;;
55300;SDS011;58302;51.446;-2.000;2023-04-21T11:39:15;6.88;;;4.30;;
55300;SDS011;58302;51.446;-2.000;2023-04-21T11:41:46;7.88;;;5.00;;
55300;SDS011;58302;51.446;-2.000;2023-04-21T11:44:16;8.55;;;5.28;;
55300;SDS011;58302;51.446;-2.000;2023-04-21T11:46:58;7.60;;;4.95;;
55300;SDS011;58302;51.446;-2.000;2023-04-21T11:49:25;5.97;;;4.75;;
55300;SDS011;58302;51.446;-2.000;2023-04-21T11:51:55;6.95;;;5.03;;
55300;SDS011;58302;51.446;-2.000;2023-04-21T11:54:21;6.68;;;4.65;;
55300;SDS011;58302;51.446;-2.000;2023-04-21T11:56:49;8.57;;;5.32;;
55300;SDS011;58302;51.446;-2.000;2023-04-21T11:59:17;8.35;;;5.22;;
55300;SDS011;58302;51.446;-2.000;2023-04-21T12:01:52;6.57;;;4.80;;
55300;SDS011;58302;51.446;-2.000;2023-04-21T12:04:21;7.72;;;4.82;;
55300;SDS011;58302;51.446;-2.000;2023-04-21T12:07:00;6.32;;;4.15;;
55300;SDS011;58302;51.446;-2.000;2023-04-21T12:09:27;5.45;;;4.03;;
55300;SDS011;58302;51.446;-2.000;2023-04-21T12:11:56;5.97;;;4.47;;
55300;SDS011;58302;51.446;-2.000;2023-04-21T12:14:24;5.07;;;4.35;;
55300;SDS011;58302;51.446;-2.000;2023-04-21T12:16:54;4.15;;;3.13;;
55300;SDS011;58302;51.446;-2.000;2023-04-21T12:19:43;4.95;;;3.22;;
55300;SDS011;58302;51.446;-2.000;2023-04-21T12:22:13;4.35;;;3.25;;
55300;SDS011;58302;51.446;-2.000;2023-04-21T12:24:40;4.80;;;3.70;;
55300;SDS011;58302;51.446;-2.000;2023-04-21T12:27:09;3.83;;;3.35;;
55300;SDS011;58302;51.446;-2.000;2023-04-21T12:29:36;3.75;;;3.28;;
55300;SDS011;58302;51.446;-2.000;2023-04-21T12:32:04;5.07;;;3.88;;
55300;SDS011;58302;51.446;-2.000;2023-04-21T12:34:31;4.35;;;3.65;;
55300;SDS011;58302;51.446;-2.000;2023-04-21T12:37:02;5.03;;;3.72;;
55300;SDS011;58302;51.446;-2.000;2023-04-21T12:39:28;3.80;;;3.38;;
55300;SDS011;58302;51.446;-2.000;2023-04-21T12:41:54;4.15;;;3.65;;
55300;SDS011;58302;51.446;-2.000;2023-04-21T12:44:20;3.83;;;3.42;;
55300;SDS011;58302;51.446;-2.000;2023-04-21T12:46:46;4.55;;;3.97;;
55300;SDS011;58302;51.446;-2.000;2023-04-21T12:49:17;4.13;;;3.58;;
55300;SDS011;58302;51.446;-2.000;2023-04-21T12:51:44;4.10;;;3.05;;
55300;SDS011;58302;51.446;-2.000;2023-04-21T12:54:10;4.07;;;3.35;;
55300;SDS011;58302;51.446;-2.000;2023-04-21T12:56:37;4.68;;;3.67;;
55300;SDS011;58302;51.446;-2.000;2023-04-21T12:59:05;5.60;;;4.00;;
55300;SDS011;58302;51.446;-2.000;2023-04-21T13:01:31;4.45;;;3.50;;
55300;SDS011;58302;51.446;-2.000;2023-04-21T13:03:58;4.43;;;3.13;;
55300;SDS011;58302;51.446;-2.000;2023-04-21T13:06:24;4.90;;;4.40;;
55300;SDS011;58302;51.446;-2.000;2023-04-21T13:08:50;5.93;;;3.40;;
55300;SDS011;58302;51.446;-2.000;2023-04-21T13:11:16;5.32;;;3.45;;
55300;SDS011;58302;51.446;-2.000;2023-04-21T13:13:42;6.78;;;3.83;;
55300;SDS011;58302;51.446;-2.000;2023-04-21T13:16:08;4.03;;;3.50;;
55300;SDS011;58302;51.446;-2.000;2023-04-21T13:18:34;3.80;;;3.20;;
55300;SDS011;58302;51.446;-2.000;2023-04-21T13:21:03;4.15;;;3.40;;
55300;SDS011;58302;51.446;-2.000;2023-04-21T13:23:31;6.18;;;5.55;;
55300;SDS011;58302;51.446;-2.000;2023-04-21T13:25:57;3.97;;;3.58;;
55300;SDS011;58302;51.446;-2.000;2023-04-21T13:28:23;4.55;;;3.13;;
55300;SDS011;58302;51.446;-2.000;2023-04-21T13:30:50;4.05;;;3.65;;
55300;SDS011;58302;51.446;-2.000;2023-04-21T13:33:17;5.07;;;3.53;;
55300;SDS011;58302;51.446;-2.000;2023-04-21T13:35:43;3.83;;;3.20;;
55300;SDS011;58302;51.446;-2.000;2023-04-21T13:38:10;4.30;;;3.58;;
55300;SDS011;58302;51.446;-2.000;2023-04-21T13:40:37;4.05;;;3.40;;
55300;SDS011;58302;51.446;-2.000;2023-04-21T13:43:03;4.57;;;3.30;;
55300;SDS011;58302;51.446;-2.000;2023-04-21T13:45:30;4.63;;;3.17;;
55300;SDS011;58302;51.446;-2.000;2023-04-21T13:47:56;3.83;;;3.10;;
55300;SDS011;58302;51.446;-2.000;2023-04-21T13:50:23;5.15;;;4.18;;
55300;SDS011;58302;51.446;-2.000;2023-04-21T13:52:49;4.00;;;3.13;;
55300;SDS011;58302;51.446;-2.000;2023-04-21T13:55:15;4.78;;;3.35;;
55300;SDS011;58302;51.446;-2.000;2023-04-21T13:57:41;4.75;;;3.13;;
55300;SDS011;58302;51.446;-2.000;2023-04-21T14:00:07;4.32;;;3.40;;
55300;SDS011;58302;51.446;-2.000;2023-04-21T14:02:35;3.75;;;3.17;;
55300;SDS011;58302;51.446;-2.000;2023-04-21T14:05:01;6.00;;;3.35;;
55300;SDS011;58302;51.446;-2.000;2023-04-21T14:07:28;4.15;;;3.70;;
55300;SDS011;58302;51.446;-2.000;2023-04-21T14:09:55;4.55;;;3.20;;
55300;SDS011;58302;51.446;-2.000;2023-04-21T14:12:21;3.40;;;3.10;;
55300;SDS011;58302;51.446;-2.000;2023-04-21T14:14:48;4.63;;;3.40;;
55300;SDS011;58302;51.446;-2.000;2023-04-21T14:17:14;7.28;;;5.05;;
55300;SDS011;58302;51.446;-2.000;2023-04-21T14:19:41;30.15;;;17.08;;
55300;SDS011;58302;51.446;-2.000;2023-04-21T14:22:07;14.73;;;9.93;;
55300;SDS011;58302;51.446;-2.000;2023-04-21T14:24:33;6.60;;;4.40;;
55300;SDS011;58302;51.446;-2.000;2023-04-21T14:26:59;4.82;;;4.00;;
55300;SDS011;58302;51.446;-2.000;2023-04-21T14:29:25;5.43;;;4.47;;
55300;SDS011;58302;51.446;-2.000;2023-04-21T14:31:51;5.55;;;4.20;;
55300;SDS011;58302;51.446;-2.000;2023-04-21T14:34:25;5.55;;;4.68;;
55300;SDS011;58302;51.446;-2.000;2023-04-21T14:36:51;5.97;;;5.05;;
55300;SDS011;58302;51.446;-2.000;2023-04-21T14:39:18;3.90;;;3.22;;